North Stonington, Connecticut
Current Conditions -  °F | °C
As of 5:53 AM on Tuesday 21 Oct 2014 (Local Time) from KWST Reporting Station
Clear Clear  
Wind Chill: 10°   Ceiling: Unl
Heat Index: 10°   Visibility: 7mi
Dew Point:   Wind: 0mph
Humidity: 96%   Direction: NA
Pressure: 29.94"   Gusts: NA
Location:  41.44°N, 71.88°W
Report Text: KWST 210953Z AUTO 00000KT 7SM CLR 10/09 A2994 RMK AO2 SLP137 T01000094
Loading
Personal Weather Stations






























Interactive Weather Map
Tropical Storm Tracking
New forecast layout! Learn more

10-Day Weather Forecast

Advertisements
Track Severe Weather on mobile